Time;durP1;ratioP1;P1;durP2;ratioP2;P2;SDS_P1;SDS_P2;PMS_P1;PMS_P2;Temp;Humidity;BMP_temperature;BMP_pressure;BME280_temperature;BME280_humidity;BME280_pressure;Samples;Min_cycle;Max_cycle;Signal;HPM_P1;HPM_P2
2023/05/20 00:02:05;;;;;;;14.47;7.90;;;11.20;99.90;;;;;;4966315;28;20128;-82
2023/05/20 00:04:31;;;;;;;13.87;7.40;;;11.20;99.90;;;;;;4952114;28;20034;-82
2023/05/20 00:06:59;;;;;;;12.13;7.13;;;11.10;99.90;;;;;;4971600;28;20049;-82
2023/05/20 00:09:25;;;;;;;13.93;7.17;;;11.10;99.90;;;;;;4977186;28;20061;-82
2023/05/20 00:11:51;;;;;;;11.70;6.90;;;11.10;99.90;;;;;;4966650;28;20056;-82
2023/05/20 00:14:16;;;;;;;12.47;7.20;;;11.00;99.90;;;;;;4977531;28;20125;-82
2023/05/20 00:16:42;;;;;;;13.40;7.20;;;11.00;99.90;;;;;;4976752;28;20351;-82
2023/05/20 00:19:08;;;;;;;13.23;7.17;;;11.00;99.90;;;;;;4973792;28;20506;-83
2023/05/20 00:21:34;;;;;;;11.40;6.47;;;11.00;99.90;;;;;;4976821;28;20038;-82
2023/05/20 00:24:00;;;;;;;11.63;6.63;;;11.10;99.90;;;;;;4974883;28;20038;-82
2023/05/20 00:26:29;;;;;;;10.10;6.60;;;11.10;99.90;;;;;;4945615;28;20049;-82
2023/05/20 00:28:57;;;;;;;10.65;6.75;;;11.00;99.90;;;;;;4971231;28;20070;-83
2023/05/20 00:31:23;;;;;;;13.87;6.57;;;11.00;99.90;;;;;;4964014;28;20115;-82
2023/05/20 00:33:48;;;;;;;12.37;7.27;;;11.00;99.90;;;;;;4961509;28;20132;-83
2023/05/20 00:36:14;;;;;;;14.13;7.10;;;11.00;99.90;;;;;;4973048;28;20044;-83
2023/05/20 00:38:45;;;;;;;9.90;6.50;;;11.10;99.90;;;;;;4977412;28;20053;-83
2023/05/20 00:41:11;;;;;;;11.88;6.65;;;11.10;99.90;;;;;;4961026;28;20042;-82
2023/05/20 00:43:37;;;;;;;9.53;6.63;;;11.00;99.90;;;;;;4970892;28;20041;-82
2023/05/20 00:46:03;;;;;;;9.70;6.63;;;11.10;99.90;;;;;;4959835;28;20167;-82
2023/05/20 00:48:38;;;;;;;10.50;6.67;;;11.10;99.90;;;;;;4976212;28;20050;-83
2023/05/20 00:51:06;;;;;;;11.70;6.10;;;11.10;99.90;;;;;;4966605;28;20050;-82
2023/05/20 00:53:33;;;;;;;11.47;7.00;;;11.10;99.90;;;;;;4962337;28;20048;-83
2023/05/20 00:56:00;;;;;;;11.20;6.50;;;11.10;99.90;;;;;;4974616;28;20096;-82
2023/05/20 00:58:26;;;;;;;9.43;5.90;;;11.10;99.90;;;;;;4984128;28;20045;-82
2023/05/20 01:00:52;;;;;;;8.77;5.60;;;11.10;99.90;;;;;;4967057;28;20041;-83
2023/05/20 01:03:18;;;;;;;13.07;6.20;;;11.10;99.90;;;;;;4966765;28;20049;-82
2023/05/20 01:05:44;;;;;;;11.27;6.47;;;11.10;99.90;;;;;;4956980;28;20046;-82
2023/05/20 01:08:10;;;;;;;9.90;6.30;;;11.10;99.90;;;;;;4945181;28;20077;-82
2023/05/20 01:10:42;;;;;;;10.30;6.23;;;11.10;99.90;;;;;;4962031;28;20108;-83
2023/05/20 01:13:14;;;;;;;9.13;5.93;;;11.10;99.90;;;;;;4985135;28;20045;-82
2023/05/20 01:15:43;;;;;;;11.27;6.37;;;11.10;99.90;;;;;;4990584;28;20046;-82
2023/05/20 01:18:09;;;;;;;8.77;6.57;;;11.10;99.90;;;;;;4979363;28;20050;-82
2023/05/20 01:20:36;;;;;;;12.20;6.73;;;11.10;99.90;;;;;;4961205;28;20038;-82
2023/05/20 01:23:03;;;;;;;9.83;6.17;;;11.10;99.90;;;;;;4991895;28;20037;-82
2023/05/20 01:25:28;;;;;;;10.83;5.83;;;11.00;99.90;;;;;;4960356;28;20080;-83
2023/05/20 01:27:57;;;;;;;8.70;5.97;;;11.00;99.90;;;;;;4977117;28;20033;-82
2023/05/20 01:30:28;;;;;;;10.40;5.83;;;11.00;99.90;;;;;;4985831;28;20050;-82
2023/05/20 01:33:00;;;;;;;10.37;6.70;;;11.00;99.90;;;;;;4973932;28;20172;-82
2023/05/20 01:35:26;;;;;;;;;;;10.90;99.90;;;;;;4982364;28;20173;-83
2023/05/20 01:37:52;;;;;;;10.90;5.57;;;10.90;99.90;;;;;;4977409;28;19928;-82
2023/05/20 01:40:18;;;;;;;9.70;6.10;;;10.90;99.90;;;;;;4955819;28;20128;-82
2023/05/20 01:42:45;;;;;;;8.83;5.47;;;10.90;99.90;;;;;;4973540;28;20034;-82
2023/05/20 01:45:11;;;;;;;10.83;5.47;;;10.90;99.90;;;;;;4962603;28;20038;-82
2023/05/20 01:47:37;;;;;;;8.93;5.90;;;10.90;99.90;;;;;;4958117;28;20053;-82
2023/05/20 01:50:03;;;;;;;9.30;6.20;;;10.90;99.90;;;;;;4964516;28;20072;-82
2023/05/20 01:52:28;;;;;;;8.77;5.87;;;10.90;99.90;;;;;;4985342;28;20402;-82
2023/05/20 01:54:54;;;;;;;9.13;5.67;;;11.00;99.90;;;;;;4974939;28;20045;-82
2023/05/20 01:57:22;;;;;;;10.70;6.90;;;10.90;99.90;;;;;;4951683;28;20053;-82
2023/05/20 01:59:48;;;;;;;8.23;5.87;;;10.90;99.90;;;;;;4958008;28;20045;-83
2023/05/20 02:02:14;;;;;;;9.87;5.80;;;10.90;99.90;;;;;;4971548;28;20046;-82
2023/05/20 02:04:42;;;;;;;7.50;5.50;;;10.90;99.90;;;;;;4969507;28;20038;-82
2023/05/20 02:07:14;;;;;;;7.55;5.13;;;10.80;99.90;;;;;;4970437;28;20125;-82
2023/05/20 02:09:40;;;;;;;9.83;6.40;;;10.80;99.90;;;;;;4977725;28;20521;-82
2023/05/20 02:12:15;;;;;;;9.73;5.57;;;10.80;99.90;;;;;;4982338;28;20044;-82
2023/05/20 02:14:50;;;;;;;10.37;5.83;;;10.80;99.90;;;;;;4993934;28;20042;-83
2023/05/20 02:17:19;;;;;;;8.77;5.90;;;10.80;99.90;;;;;;4967321;28;20100;-82
2023/05/20 02:19:45;;;;;;;7.10;5.37;;;10.80;99.90;;;;;;4975511;28;20038;-82
2023/05/20 02:22:12;;;;;;;9.80;6.03;;;10.80;99.90;;;;;;4981607;28;20053;-82
2023/05/20 02:24:38;;;;;;;10.13;5.67;;;10.80;99.90;;;;;;4987468;28;20060;-83
2023/05/20 02:27:05;;;;;;;7.90;5.83;;;10.80;99.90;;;;;;4988161;28;20490;-82
2023/05/20 02:29:31;;;;;;;8.00;5.47;;;10.80;99.90;;;;;;4984945;28;20121;-82
2023/05/20 02:31:57;;;;;;;9.23;5.67;;;10.80;99.90;;;;;;4984534;28;20363;-82
2023/05/20 02:34:24;;;;;;;9.57;5.80;;;10.80;99.90;;;;;;4975166;28;20053;-82
2023/05/20 02:36:51;;;;;;;8.23;5.30;;;10.80;99.90;;;;;;4956460;28;20042;-82
2023/05/20 02:39:17;;;;;;;8.93;5.73;;;10.80;99.90;;;;;;4961407;28;20042;-82
2023/05/20 02:41:42;;;;;;;9.87;5.20;;;10.80;99.90;;;;;;4977361;28;20041;-83
2023/05/20 02:44:08;;;;;;;10.10;5.77;;;10.80;99.90;;;;;;4971660;28;20080;-82
2023/05/20 02:46:34;;;;;;;11.03;5.90;;;10.80;99.90;;;;;;4970791;28;20068;-82
2023/05/20 02:49:00;;;;;;;8.87;5.73;;;10.80;99.90;;;;;;4971253;28;20052;-82
2023/05/20 02:51:26;;;;;;;8.87;5.80;;;10.80;99.90;;;;;;4981452;28;20408;-82
2023/05/20 02:53:51;;;;;;;9.57;5.70;;;10.80;99.90;;;;;;4989749;28;20433;-82
2023/05/20 02:56:20;;;;;;;9.93;5.57;;;10.80;99.90;;;;;;4975728;28;20042;-82
2023/05/20 02:58:51;;;;;;;8.43;5.17;;;10.80;99.90;;;;;;4972476;28;20541;-82
2023/05/20 03:01:16;;;;;;;10.40;5.40;;;10.80;99.90;;;;;;4973295;28;20034;-82
2023/05/20 03:03:42;;;;;;;7.93;5.27;;;10.80;99.90;;;;;;4968317;28;20093;-83
2023/05/20 03:06:08;;;;;;;10.67;5.53;;;10.70;99.90;;;;;;4960590;28;20091;-82
2023/05/20 03:08:35;;;;;;;8.97;5.20;;;10.70;99.90;;;;;;4974191;28;20057;-82
2023/05/20 03:11:03;;;;;;;7.50;5.10;;;10.70;99.90;;;;;;4971313;28;20054;-83
2023/05/20 03:13:29;;;;;;;9.63;5.93;;;10.70;99.90;;;;;;4991681;28;20050;-82
2023/05/20 03:16:00;;;;;;;10.30;5.50;;;10.70;99.90;;;;;;4969687;28;20045;-82
2023/05/20 03:18:26;;;;;;;6.83;5.10;;;10.70;99.90;;;;;;4978430;28;20046;-82
2023/05/20 03:20:52;;;;;;;9.07;5.80;;;10.60;99.90;;;;;;4967642;28;20041;-82
2023/05/20 03:23:17;;;;;;;10.80;5.43;;;10.60;99.90;;;;;;4990261;28;20922;-82
2023/05/20 03:25:43;;;;;;;8.13;5.40;;;10.60;99.90;;;;;;4973271;28;20125;-82
2023/05/20 03:28:09;;;;;;;7.07;4.93;;;10.60;99.90;;;;;;4986670;28;20041;-82
2023/05/20 03:30:35;;;;;;;8.77;5.20;;;10.60;99.90;;;;;;4977244;28;20050;-82
2023/05/20 03:33:01;;;;;;;7.83;5.40;;;10.60;99.90;;;;;;4993055;28;20053;-82
2023/05/20 03:35:27;;;;;;;8.50;5.37;;;10.60;99.90;;;;;;4990985;28;20046;-82
2023/05/20 03:37:53;;;;;;;8.30;5.07;;;10.60;99.90;;;;;;4977226;28;20046;-82
2023/05/20 03:40:19;;;;;;;9.43;5.47;;;10.60;99.90;;;;;;4954258;28;20091;-82
2023/05/20 03:42:45;;;;;;;8.93;5.07;;;10.60;99.90;;;;;;4993806;28;20527;-82
2023/05/20 03:45:11;;;;;;;10.57;5.33;;;10.60;99.90;;;;;;4966857;28;20112;-82
2023/05/20 03:47:37;;;;;;;6.87;5.17;;;10.50;99.90;;;;;;4976912;28;20124;-82
2023/05/20 03:50:03;;;;;;;10.83;5.33;;;10.60;99.90;;;;;;4977239;28;20049;-82
2023/05/20 03:52:29;;;;;;;7.20;5.03;;;10.50;99.90;;;;;;4958585;28;20049;-82
2023/05/20 03:54:55;;;;;;;9.00;4.77;;;10.50;99.90;;;;;;4965864;28;20034;-82
2023/05/20 03:57:21;;;;;;;7.97;5.47;;;10.50;99.90;;;;;;4973375;28;20038;-82
2023/05/20 03:59:47;;;;;;;9.53;5.20;;;10.60;99.90;;;;;;4993170;28;20537;-83
2023/05/20 04:02:13;;;;;;;9.03;5.27;;;10.60;99.90;;;;;;4965518;28;20046;-82
2023/05/20 04:04:41;;;;;;;8.80;5.20;;;10.60;99.90;;;;;;4965864;28;20050;-82
2023/05/20 04:07:10;;;;;;;8.70;5.03;;;10.60;99.90;;;;;;4954993;28;20030;-82
2023/05/20 04:09:37;;;;;;;7.83;4.73;;;10.60;99.90;;;;;;4969540;28;20061;-82
2023/05/20 04:12:03;;;;;;;9.87;4.93;;;10.70;99.90;;;;;;4955201;28;20684;-82
2023/05/20 04:14:30;;;;;;;6.10;4.17;;;10.70;99.90;;;;;;4975774;28;20046;-82
2023/05/20 04:16:56;;;;;;;6.90;4.37;;;10.70;99.90;;;;;;4971275;28;20037;-82
2023/05/20 04:19:22;;;;;;;7.00;4.77;;;10.80;99.90;;;;;;4949211;28;20836;-82
2023/05/20 04:21:51;;;;;;;6.47;4.47;;;10.80;99.90;;;;;;4985499;28;20077;-83
2023/05/20 04:24:17;;;;;;;6.63;4.10;;;10.90;99.90;;;;;;4974065;28;20042;-83
2023/05/20 04:26:43;;;;;;;6.23;4.50;;;10.90;99.90;;;;;;4975846;28;20433;-82
2023/05/20 04:29:08;;;;;;;10.07;4.23;;;10.90;99.90;;;;;;4959745;28;20057;-82
2023/05/20 04:31:34;;;;;;;7.17;3.97;;;10.90;99.90;;;;;;4977964;28;20129;-82
2023/05/20 04:34:01;;;;;;;8.23;4.43;;;11.00;99.90;;;;;;4956243;28;20044;-82
2023/05/20 04:36:27;;;;;;;6.23;3.97;;;11.00;99.90;;;;;;4988653;28;20046;-82
2023/05/20 04:38:54;;;;;;;6.47;4.50;;;11.00;99.90;;;;;;4979101;28;20054;-82
2023/05/20 04:41:19;;;;;;;5.50;4.03;;;11.00;99.90;;;;;;4965031;28;20129;-83
2023/05/20 04:43:45;;;;;;;5.77;3.70;;;11.00;99.90;;;;;;4963627;28;20129;-82
2023/05/20 04:46:11;;;;;;;5.53;3.77;;;10.90;99.90;;;;;;4963156;28;20034;-82
2023/05/20 04:48:37;;;;;;;4.47;3.70;;;11.00;99.90;;;;;;4962706;28;20104;-81
2023/05/20 04:51:02;;;;;;;10.03;4.00;;;11.00;99.90;;;;;;4987687;28;20541;-83
2023/05/20 04:53:29;;;;;;;5.97;3.70;;;11.00;99.90;;;;;;4946013;28;20405;-83
2023/05/20 04:55:57;;;;;;;5.93;4.07;;;11.00;99.90;;;;;;4989361;28;20054;-82
2023/05/20 04:58:23;;;;;;;5.33;3.70;;;11.10;99.90;;;;;;4997369;28;20048;-82
2023/05/20 05:00:51;;;;;;;8.60;4.13;;;11.00;99.90;;;;;;4970581;28;20039;-83
2023/05/20 05:03:17;;;;;;;6.83;3.70;;;11.00;99.90;;;;;;4977737;28;20092;-82
2023/05/20 05:05:43;;;;;;;7.73;3.40;;;11.10;99.90;;;;;;4967468;28;20169;-82
2023/05/20 05:08:12;;;;;;;5.70;3.53;;;11.20;99.90;;;;;;4964373;28;20487;-82
2023/05/20 05:10:38;;;;;;;5.77;3.17;;;11.30;99.90;;;;;;5011441;28;20465;-82
2023/05/20 05:13:04;;;;;;;5.97;2.80;;;11.40;99.90;;;;;;4986011;28;20125;-82
2023/05/20 05:15:30;;;;;;;5.07;2.60;;;11.40;99.90;;;;;;4975197;28;20117;-82
2023/05/20 05:17:55;;;;;;;3.93;2.60;;;11.60;99.90;;;;;;4979999;28;20077;-83
2023/05/20 05:20:24;;;;;;;3.63;2.50;;;11.70;99.90;;;;;;4986897;28;20038;-83
2023/05/20 05:22:50;;;;;;;4.13;2.40;;;11.70;99.90;;;;;;4996158;28;20053;-82
2023/05/20 05:25:16;;;;;;;2.83;2.30;;;11.80;99.90;;;;;;4995869;28;20037;-82
2023/05/20 05:27:44;;;;;;;3.10;2.13;;;11.90;99.90;;;;;;4976329;28;20041;-83
2023/05/20 05:30:10;;;;;;;4.57;2.30;;;11.90;99.90;;;;;;4988711;28;20057;-82
2023/05/20 05:32:36;;;;;;;3.07;2.30;;;12.00;99.90;;;;;;4987453;28;20435;-83
2023/05/20 05:35:02;;;;;;;3.43;2.40;;;12.00;99.90;;;;;;4971607;28;20042;-82
2023/05/20 05:37:28;;;;;;;2.67;1.97;;;12.10;99.90;;;;;;4991809;28;20121;-82
2023/05/20 05:40:02;;;;;;;4.23;2.10;;;12.10;99.90;;;;;;4954566;28;20137;-83
2023/05/20 05:42:27;;;;;;;3.80;2.13;;;12.20;99.90;;;;;;4991990;28;20064;-83
2023/05/20 05:44:53;;;;;;;4.40;2.27;;;12.20;99.90;;;;;;4999248;28;20041;-82
2023/05/20 05:47:19;;;;;;;5.83;2.30;;;12.30;99.90;;;;;;4969431;28;20038;-82
2023/05/20 05:49:45;;;;;;;3.53;1.90;;;12.30;99.90;;;;;;4975362;28;20046;-83
2023/05/20 05:52:14;;;;;;;3.67;2.37;;;12.40;99.90;;;;;;4954933;28;20728;-82
2023/05/20 05:54:39;;;;;;;3.37;2.20;;;12.50;99.90;;;;;;4976977;28;20039;-81
2023/05/20 05:57:10;;;;;;;2.33;1.97;;;12.50;99.90;;;;;;4982877;28;20076;-82
2023/05/20 05:59:36;;;;;;;5.83;2.20;;;12.60;99.90;;;;;;4999381;28;20050;-81
2023/05/20 06:02:02;;;;;;;2.87;1.70;;;12.60;99.90;;;;;;4993271;28;20171;-83
2023/05/20 06:04:27;;;;;;;2.57;2.20;;;12.70;99.90;;;;;;4995548;28;20144;-82
2023/05/20 06:06:53;;;;;;;4.07;2.40;;;12.90;99.90;;;;;;4964979;28;20078;-82
2023/05/20 06:09:19;;;;;;;4.43;2.10;;;12.90;99.90;;;;;;4958817;28;20405;-82
2023/05/20 06:11:45;;;;;;;1.87;1.73;;;12.90;99.90;;;;;;4995571;28;20048;-82
2023/05/20 06:14:10;;;;;;;4.20;2.20;;;13.00;99.90;;;;;;4993282;28;20037;-82
2023/05/20 06:16:39;;;;;;;3.30;2.03;;;13.00;99.90;;;;;;4959401;28;20044;-82
2023/05/20 06:19:08;;;;;;;2.43;1.73;;;13.10;99.90;;;;;;4936293;28;20128;-83
2023/05/20 06:21:34;;;;;;;3.57;2.00;;;13.20;99.90;;;;;;4961764;28;20727;-81
2023/05/20 06:23:59;;;;;;;2.63;1.92;;;13.30;99.90;;;;;;4985775;28;20512;-82
2023/05/20 06:26:25;;;;;;;3.05;2.05;;;13.40;99.90;;;;;;4951208;28;20515;-83
2023/05/20 06:28:52;;;;;;;2.15;1.75;;;13.50;99.90;;;;;;4975694;28;20038;-82
2023/05/20 06:31:21;;;;;;;3.60;2.05;;;13.60;99.90;;;;;;4975390;28;20080;-83
2023/05/20 06:33:49;;;;;;;2.95;2.00;;;13.70;99.90;;;;;;4944570;28;20492;-82
2023/05/20 06:36:19;;;;;;;4.15;2.10;;;13.80;99.90;;;;;;4968835;28;20042;-83
2023/05/20 06:38:47;;;;;;;4.32;2.13;;;13.90;99.90;;;;;;4948896;28;20044;-82
2023/05/20 06:41:16;;;;;;;4.35;2.35;;;14.00;99.90;;;;;;4954565;28;20117;-82
2023/05/20 06:43:42;;;;;;;6.35;2.22;;;13.90;99.90;;;;;;4967732;28;20525;-82
2023/05/20 06:46:08;;;;;;;4.35;2.30;;;13.90;99.90;;;;;;4967971;28;20097;-81
2023/05/20 06:48:34;;;;;;;2.70;2.08;;;14.00;99.90;;;;;;4968993;28;20081;-83
2023/05/20 06:50:59;;;;;;;4.18;2.05;;;14.10;99.90;;;;;;4958304;28;20042;-82
2023/05/20 06:53:25;;;;;;;3.92;2.55;;;14.30;99.90;;;;;;4996343;28;20592;-82
2023/05/20 06:55:57;;;;;;;3.55;2.05;;;14.40;99.90;;;;;;4966037;28;20057;-83
2023/05/20 06:58:23;;;;;;;3.38;2.13;;;14.40;99.90;;;;;;4971429;28;20038;-83
2023/05/20 07:00:48;;;;;;;3.63;2.08;;;14.40;99.90;;;;;;4985955;28;20728;-82
2023/05/20 07:03:14;;;;;;;3.67;2.55;;;14.40;99.90;;;;;;4973319;28;20516;-83
2023/05/20 07:05:40;;;;;;;2.22;2.03;;;14.60;99.90;;;;;;4995440;28;20072;-83
2023/05/20 07:08:05;;;;;;;2.65;2.22;;;14.60;99.90;;;;;;4975421;28;20058;-82
2023/05/20 07:10:31;;;;;;;4.72;2.40;;;14.70;99.90;;;;;;4961292;28;20058;-83
2023/05/20 07:12:57;;;;;;;4.07;2.40;;;14.70;99.90;;;;;;4990566;28;20053;-82
2023/05/20 07:15:23;;;;;;;3.28;2.53;;;14.80;99.90;;;;;;4985825;28;20087;-82
2023/05/20 07:17:48;;;;;;;4.57;2.50;;;15.00;99.90;;;;;;4965042;28;20394;-83
2023/05/20 07:20:14;;;;;;;3.28;2.53;;;15.00;99.90;;;;;;4957791;28;20041;-82
2023/05/20 07:22:40;;;;;;;3.50;2.70;;;15.10;99.90;;;;;;4957493;28;20041;-82
2023/05/20 07:25:06;;;;;;;3.22;2.67;;;15.10;99.90;;;;;;4944072;28;20402;-82
2023/05/20 07:27:32;;;;;;;3.83;2.40;;;15.10;99.90;;;;;;4956122;28;20048;-82
2023/05/20 07:29:58;;;;;;;3.10;2.30;;;15.20;99.90;;;;;;4969815;28;20041;-81
2023/05/20 07:32:23;;;;;;;5.15;2.88;;;15.30;99.90;;;;;;4974896;28;20041;-82
2023/05/20 07:34:49;;;;;;;4.28;2.78;;;15.40;99.90;;;;;;4991257;28;20081;-83
2023/05/20 07:37:15;;;;;;;4.13;2.70;;;15.50;99.90;;;;;;4965484;28;20079;-80
2023/05/20 07:39:41;;;;;;;7.65;2.95;;;15.40;99.90;;;;;;4956890;28;20046;-82
2023/05/20 07:42:06;;;;;;;2.95;2.65;;;15.40;99.90;;;;;;4960520;28;20486;-82
2023/05/20 07:44:32;;;;;;;3.45;2.63;;;15.50;99.90;;;;;;4971602;28;20041;-82
2023/05/20 07:47:01;;;;;;;5.75;2.50;;;15.60;99.90;;;;;;4991636;28;20042;-83
2023/05/20 07:49:27;;;;;;;4.43;2.40;;;15.80;99.90;;;;;;4994363;28;20046;-82
2023/05/20 07:51:52;;;;;;;3.15;2.38;;;15.80;99.90;;;;;;4978836;28;20489;-82
2023/05/20 07:54:18;;;;;;;3.60;2.55;;;15.90;99.90;;;;;;4968248;28;20638;-82
2023/05/20 07:56:44;;;;;;;3.75;2.65;;;16.00;99.90;;;;;;4990711;28;20125;-81
2023/05/20 07:59:10;;;;;;;2.80;2.30;;;16.10;99.90;;;;;;4978391;28;20054;-82
2023/05/20 08:01:36;;;;;;;2.92;2.25;;;16.00;99.90;;;;;;4967841;28;20439;-82
2023/05/20 08:04:02;;;;;;;3.88;2.58;;;16.10;99.90;;;;;;4969555;28;20586;-81
2023/05/20 08:06:28;;;;;;;4.20;2.90;;;16.20;99.90;;;;;;4978920;28;20042;-82
2023/05/20 08:08:53;;;;;;;3.38;2.78;;;16.20;99.90;;;;;;4957535;28;20061;-82
2023/05/20 08:11:22;;;;;;;3.00;2.35;;;16.30;99.90;;;;;;4951824;28;20199;-81
2023/05/20 08:13:48;;;;;;;3.25;2.30;;;16.40;99.90;;;;;;4947573;28;20038;-81
2023/05/20 08:16:14;;;;;;;4.28;2.78;;;16.40;99.90;;;;;;4971731;28;20548;-82
2023/05/20 08:18:40;;;;;;;5.68;2.95;;;16.50;99.90;;;;;;4966284;28;20484;-82
2023/05/20 08:21:06;;;;;;;4.32;2.90;;;16.60;99.90;;;;;;4976521;28;20034;-82
2023/05/20 08:23:33;;;;;;;3.60;2.80;;;16.80;99.90;;;;;;4983136;28;20127;-82
2023/05/20 08:26:01;;;;;;;3.03;2.60;;;16.90;99.90;;;;;;4977436;28;20733;-82
2023/05/20 08:28:27;;;;;;;6.10;3.20;;;17.00;99.90;;;;;;4981865;28;20050;-82
2023/05/20 08:30:53;;;;;;;5.20;3.22;;;17.20;99.90;;;;;;4954130;28;20038;-82
2023/05/20 08:33:20;;;;;;;6.45;3.40;;;17.10;99.90;;;;;;4968947;28;20045;-83
2023/05/20 08:35:47;;;;;;;4.10;2.75;;;17.00;99.90;;;;;;4982272;28;20447;-83
2023/05/20 08:38:12;;;;;;;6.75;2.90;;;17.00;99.90;;;;;;4996228;28;20068;-81
2023/05/20 08:40:38;;;;;;;3.58;3.25;;;17.00;99.90;;;;;;4971322;28;20050;-82
2023/05/20 08:43:04;;;;;;;4.35;3.20;;;17.10;99.90;;;;;;4980872;28;20136;-81
2023/05/20 08:45:37;;;;;;;4.03;3.00;;;17.20;99.90;;;;;;4958834;28;20367;-82
2023/05/20 08:48:17;;;;;;;5.05;3.40;;;17.30;99.90;;;;;;5007603;28;20248;-80
2023/05/20 08:50:47;;;;;;;5.00;2.80;;;17.40;99.90;;;;;;4970363;28;20054;-79
2023/05/20 08:53:17;;;;;;;5.07;3.20;;;17.60;99.90;;;;;;4986375;28;20050;-80
2023/05/20 08:55:46;;;;;;;3.65;2.90;;;17.70;99.90;;;;;;4971559;28;20046;-81
2023/05/20 08:58:18;;;;;;;5.07;3.13;;;17.80;99.90;;;;;;4977449;28;20048;-83
2023/05/20 09:00:44;;;;;;;6.65;3.05;;;17.70;99.90;;;;;;4992246;28;20041;-81
2023/05/20 09:03:10;;;;;;;4.72;3.45;;;17.70;99.90;;;;;;4950882;28;20441;-83
2023/05/20 09:05:36;;;;;;;5.03;2.80;;;17.80;99.90;;;;;;4965827;28;20133;-83
2023/05/20 09:08:10;;;;;;;4.95;3.20;;;17.90;99.90;;;;;;4970989;28;20044;-82
2023/05/20 09:11:00;;;;;;;5.18;3.05;;;18.10;99.90;;;;;;4969635;28;20049;-82
2023/05/20 09:13:51;;;;;;;7.50;3.08;;;18.20;99.90;;;;;;4976884;28;20053;-84
2023/05/20 09:16:21;;;;;;;4.05;3.17;;;18.30;99.90;;;;;;4980585;28;20454;-82
2023/05/20 09:18:46;;;;;;;5.13;3.03;;;18.20;99.90;;;;;;4972867;28;20042;-82
2023/05/20 09:21:12;;;;;;;4.75;2.85;;;18.30;99.90;;;;;;4964913;28;20516;-86
2023/05/20 09:23:38;;;;;;;3.92;3.00;;;18.60;99.90;;;;;;4991794;28;20138;-82
2023/05/20 09:26:04;;;;;;;4.72;3.35;;;18.50;99.90;;;;;;4982172;28;20077;-83
2023/05/20 09:28:29;;;;;;;5.72;2.83;;;18.40;99.90;;;;;;4981366;28;20125;-83
2023/05/20 09:30:59;;;;;;;5.55;3.17;;;18.30;99.90;;;;;;4980621;28;20045;-81
2023/05/20 09:33:30;;;;;;;6.03;3.03;;;18.40;99.90;;;;;;4996988;28;20095;-81
2023/05/20 09:36:03;;;;;;;6.47;3.17;;;18.40;99.90;;;;;;4962326;28;20642;-84
2023/05/20 09:38:34;;;;;;;4.97;2.78;;;18.30;96.70;;;;;;4962543;28;20038;-81
2023/05/20 09:41:11;;;;;;;5.43;3.37;;;18.50;99.90;;;;;;4967397;28;20100;-81
2023/05/20 09:43:39;;;;;;;4.45;3.22;;;18.40;99.90;;;;;;4991597;28;20390;-81
2023/05/20 09:46:04;;;;;;;3.88;2.88;;;18.70;99.90;;;;;;4997038;28;20454;-84
2023/05/20 09:48:30;;;;;;;4.30;3.05;;;18.80;99.90;;;;;;4964954;28;20084;-81
2023/05/20 09:50:57;;;;;;;5.22;3.03;;;19.00;99.90;;;;;;4980685;28;20081;-83
2023/05/20 09:53:27;;;;;;;4.50;2.58;;;19.00;97.30;;;;;;4962797;28;20083;-86
2023/05/20 09:55:59;;;;;;;8.80;3.22;;;18.70;91.30;;;;;;4961813;28;20046;-83
2023/05/20 09:58:27;;;;;;;5.28;2.78;;;18.70;95.30;;;;;;4968763;28;20034;-82
2023/05/20 10:00:53;;;;;;;6.55;3.17;;;18.80;94.50;;;;;;4981071;28;20489;-83
2023/05/20 10:03:23;;;;;;;3.85;2.70;;;18.80;96.60;;;;;;4992835;28;20044;-83
2023/05/20 10:06:33;;;;;;;5.78;2.85;;;18.90;93.00;;;;;;4990130;28;20046;-81
2023/05/20 10:09:28;;;;;;;6.75;2.47;;;18.90;99.90;;;;;;4984166;28;20064;-83
2023/05/20 10:11:58;;;;;;;4.88;2.42;;;19.30;94.90;;;;;;4981118;28;20375;-83
2023/05/20 10:14:42;;;;;;;4.53;2.42;;;19.60;84.90;;;;;;4992799;28;20402;-85
2023/05/20 10:17:24;;;;;;;4.53;2.78;;;19.90;80.00;;;;;;4994968;28;20080;-84
2023/05/20 10:19:56;;;;;;;3.17;2.60;;;19.80;79.40;;;;;;4977682;28;20053;-83
2023/05/20 10:22:29;;;;;;;4.90;2.70;;;19.60;79.20;;;;;;4980444;28;20521;-83
2023/05/20 10:24:59;;;;;;;4.85;2.53;;;19.70;76.30;;;;;;4967828;28;20394;-84
2023/05/20 10:27:25;;;;;;;4.50;2.50;;;19.80;79.10;;;;;;4997091;28;20180;-82
2023/05/20 10:29:59;;;;;;;4.22;2.90;;;20.10;79.80;;;;;;4947996;28;20054;-85
2023/05/20 10:32:33;;;;;;;5.90;3.15;;;19.80;73.20;;;;;;4960981;28;20050;-86
2023/05/20 10:35:03;;;;;;;3.58;2.60;;;19.50;73.10;;;;;;4977080;28;20103;-83
2023/05/20 10:37:32;;;;;;;4.53;2.65;;;19.30;77.10;;;;;;4977414;28;20517;-83
2023/05/20 10:40:10;;;;;;;5.50;2.80;;;19.20;81.00;;;;;;4980354;28;20419;-86
2023/05/20 10:42:36;;;;;;;4.55;2.53;;;19.20;81.80;;;;;;4977297;28;20049;-86
2023/05/20 10:45:06;;;;;;;3.33;2.40;;;19.30;79.00;;;;;;4982511;28;20045;-83
2023/05/20 10:47:33;;;;;;;4.40;2.70;;;19.70;77.60;;;;;;4945969;28;20494;-86
2023/05/20 10:50:03;;;;;;;4.18;2.35;;;20.00;78.90;;;;;;4960994;28;20402;-85
2023/05/20 10:52:33;;;;;;;5.03;2.40;;;19.60;73.30;;;;;;4972571;28;20045;-85
2023/05/20 10:54:59;;;;;;;3.13;2.33;;;19.20;73.40;;;;;;4983507;28;20045;-83
2023/05/20 10:57:26;;;;;;;3.88;2.35;;;19.00;78.50;;;;;;4993691;28;20104;-83
2023/05/20 10:59:53;;;;;;;3.28;2.55;;;19.10;76.00;;;;;;4978646;28;20116;-83
2023/05/20 11:02:25;;;;;;;4.03;2.58;;;19.40;79.50;;;;;;4971972;28;20044;-84
2023/05/20 11:04:52;;;;;;;5.13;2.58;;;19.70;76.30;;;;;;4992880;28;20520;-86
2023/05/20 11:07:28;;;;;;;5.78;2.55;;;19.70;75.40;;;;;;4971690;28;20046;-83
2023/05/20 11:09:55;;;;;;;3.22;2.25;;;19.80;79.10;;;;;;4987330;28;20586;-84
2023/05/20 11:12:22;;;;;;;3.30;2.50;;;19.70;79.60;;;;;;4976018;28;20052;-85
2023/05/20 11:14:49;;;;;;;5.03;2.55;;;19.40;75.50;;;;;;4980560;28;20030;-83
2023/05/20 11:17:18;;;;;;;4.03;2.35;;;19.00;76.00;;;;;;4988334;28;20569;-85
2023/05/20 11:19:46;;;;;;;5.00;2.88;;;18.90;79.60;;;;;;4965139;28;20046;-84
2023/05/20 11:22:12;;;;;;;2.42;2.15;;;18.90;82.40;;;;;;4989835;28;20422;-83
2023/05/20 11:24:37;;;;;;;2.28;2.00;;;19.20;82.40;;;;;;4990335;28;20046;-82
2023/05/20 11:27:04;;;;;;;6.40;2.50;;;19.60;79.30;;;;;;4960532;28;20050;-85
2023/05/20 11:29:31;;;;;;;5.40;2.40;;;19.80;75.10;;;;;;4968369;28;20421;-82
2023/05/20 11:31:58;;;;;;;3.50;2.00;;;19.70;73.20;;;;;;4976475;28;20065;-86
2023/05/20 11:34:24;;;;;;;2.63;2.17;;;19.40;72.40;;;;;;4993136;28;20370;-86
2023/05/20 11:36:57;;;;;;;5.07;2.10;;;19.20;73.30;;;;;;4971200;28;20112;-87
2023/05/20 11:39:26;;;;;;;5.53;2.08;;;19.10;73.00;;;;;;4960645;28;20038;-88
2023/05/20 11:41:52;;;;;;;5.25;2.60;;;19.00;74.00;;;;;;5002303;28;20040;-86
2023/05/20 11:44:19;;;;;;;3.60;2.60;;;19.00;74.70;;;;;;4984115;28;20125;-88
2023/05/20 11:46:47;;;;;;;3.53;2.47;;;18.90;74.80;;;;;;4959897;28;20046;-84
2023/05/20 11:49:18;;;;;;;2.85;2.22;;;19.20;75.00;;;;;;4976049;28;20077;-84
2023/05/20 11:51:44;;;;;;;4.10;2.30;;;19.30;75.80;;;;;;4960063;28;20398;-88
2023/05/20 11:54:10;;;;;;;4.57;2.60;;;19.20;73.80;;;;;;4960045;28;20046;-83
2023/05/20 11:56:37;;;;;;;3.58;2.10;;;19.30;74.40;;;;;;4961020;28;20121;-83
2023/05/20 11:59:09;;;;;;;3.75;2.60;;;19.20;72.30;;;;;;4979171;28;20042;-85
2023/05/20 12:01:41;;;;;;;4.20;2.50;;;19.00;72.90;;;;;;4974325;28;20400;-84
2023/05/20 12:04:14;;;;;;;;;;;19.00;74.60;;;;;;4988254;28;20428;-83
2023/05/20 12:06:41;;;;;;;4.15;2.20;;;19.20;79.20;;;;;;4961585;28;19925;-86
2023/05/20 12:09:08;;;;;;;5.70;2.45;;;19.60;77.40;;;;;;4975835;28;20058;-83
2023/05/20 12:11:39;;;;;;;3.45;2.53;;;20.10;75.60;;;;;;4964545;28;20043;-83
2023/05/20 12:14:06;;;;;;;4.70;2.20;;;20.60;71.80;;;;;;4941485;28;20089;-87
2023/05/20 12:16:33;;;;;;;4.45;2.50;;;21.00;69.40;;;;;;4960320;28;20043;-81
2023/05/20 12:19:13;;;;;;;4.30;2.38;;;21.30;68.60;;;;;;4968513;28;20050;-85
2023/05/20 12:21:49;;;;;;;8.65;3.33;;;21.40;66.70;;;;;;4955125;28;20499;-86
2023/05/20 12:24:15;;;;;;;4.28;2.30;;;21.50;65.70;;;;;;4986253;28;20165;-83
2023/05/20 12:26:40;;;;;;;10.07;3.88;;;21.20;65.30;;;;;;4980369;28;20074;-85
2023/05/20 12:29:06;;;;;;;7.45;2.47;;;20.90;65.40;;;;;;4977783;28;20051;-83
2023/05/20 12:31:32;;;;;;;4.13;2.10;;;20.50;66.60;;;;;;4991553;28;20042;-83
2023/05/20 12:33:58;;;;;;;8.75;2.95;;;20.30;67.20;;;;;;4951415;28;20847;-83
2023/05/20 12:36:23;;;;;;;7.13;2.40;;;20.20;67.70;;;;;;4986477;28;20069;-80
2023/05/20 12:38:49;;;;;;;2.58;1.85;;;20.00;68.70;;;;;;4975173;28;20176;-82
2023/05/20 12:41:15;;;;;;;4.82;1.90;;;20.00;69.80;;;;;;4980859;28;20117;-81
2023/05/20 12:43:40;;;;;;;4.28;2.10;;;20.00;70.20;;;;;;4970164;28;20031;-81
2023/05/20 12:46:06;;;;;;;4.85;2.20;;;19.90;70.30;;;;;;4972917;28;20390;-84
2023/05/20 12:48:32;;;;;;;2.92;2.30;;;19.90;68.80;;;;;;4951542;28;20090;-82